Time;durP1;ratioP1;P1;durP2;ratioP2;P2;SDS_P1;SDS_P2;PMS_P1;PMS_P2;Temp;Humidity;BMP_temperature;BMP_pressure;BME280_temperature;BME280_humidity;BME280_pressure;Samples;Min_cycle;Max_cycle;Signal;HPM_P1;HPM_P2
2022/12/03 00:00:13;;;;;;;9.40;7.77;;;;;;;;;;5032166;28;20207;-67
2022/12/03 00:02:38;;;;;;;9.80;8.50;;;;;;;;;;5015082;28;20310;-66
2022/12/03 00:05:04;;;;;;;10.17;7.53;;;;;;;;;;5030493;28;20191;-67
2022/12/03 00:07:29;;;;;;;10.77;8.80;;;;;;;;;;5016379;28;20365;-67
2022/12/03 00:09:57;;;;;;;8.70;7.37;;;;;;;;;;5016485;28;20212;-67
2022/12/03 00:12:22;;;;;;;10.60;8.83;;;;;;;;;;5029549;28;20211;-67
2022/12/03 00:14:47;;;;;;;11.13;7.80;;;;;;;;;;5030155;28;20921;-67
2022/12/03 00:17:13;;;;;;;10.00;8.73;;;;;;;;;;5034908;28;20204;-67
2022/12/03 00:19:38;;;;;;;12.87;8.80;;;;;;;;;;5026518;28;20204;-67
2022/12/03 00:22:03;;;;;;;12.37;8.87;;;;;;;;;;5034895;28;20184;-66
2022/12/03 00:24:28;;;;;;;12.33;8.50;;;;;;;;;;5032816;28;20614;-66
2022/12/03 00:26:54;;;;;;;9.30;8.23;;;;;;;;;;5037314;28;20184;-66
2022/12/03 00:29:19;;;;;;;9.40;7.60;;;;;;;;;;5029858;28;20343;-67
2022/12/03 00:31:44;;;;;;;12.63;7.90;;;;;;;;;;5032629;28;20196;-67
2022/12/03 00:34:10;;;;;;;10.07;7.70;;;;;;;;;;5030747;28;20218;-67
2022/12/03 00:36:35;;;;;;;12.47;8.87;;;;;;;;;;5026576;28;20200;-66
2022/12/03 00:39:01;;;;;;;9.33;7.97;;;;;;;;;;5016915;28;20646;-66
2022/12/03 00:41:26;;;;;;;9.50;7.67;;;;;;;;;;5029459;28;20241;-67
2022/12/03 00:43:56;;;;;;;13.60;9.10;;;;;;;;;;5029157;28;20184;-66
2022/12/03 00:46:21;;;;;;;11.60;8.60;;;;;;;;;;5027627;28;20190;-66
2022/12/03 00:48:46;;;;;;;11.00;9.30;;;;;;;;;;5033799;28;20989;-67
2022/12/03 00:51:12;;;;;;;10.77;9.33;;;;;;;;;;5028145;28;20188;-66
2022/12/03 00:53:37;;;;;;;12.20;9.93;;;;;;;;;;5034449;28;20697;-68
2022/12/03 00:56:02;;;;;;;11.00;8.90;;;;;;;;;;5033676;28;20196;-67
2022/12/03 00:58:28;;;;;;;9.90;8.03;;;;;;;;;;5026432;28;20184;-67
2022/12/03 01:00:53;;;;;;;12.10;8.33;;;;;;;;;;5031548;28;20200;-67
2022/12/03 01:03:18;;;;;;;12.50;8.70;;;;;;;;;;5034692;28;20177;-67
2022/12/03 01:05:43;;;;;;;10.10;8.63;;;;;;;;;;5014621;28;20183;-67
2022/12/03 01:08:09;;;;;;;12.00;9.00;;;;;;;;;;5030840;28;20188;-67
2022/12/03 01:10:36;;;;;;;11.20;9.47;;;;;;;;;;5033907;28;20216;-67
2022/12/03 01:13:02;;;;;;;11.63;8.77;;;;;;;;;;5034000;28;20177;-67
2022/12/03 01:15:27;;;;;;;10.43;8.50;;;;;;;;;;5028681;28;21053;-67
2022/12/03 01:17:53;;;;;;;12.30;8.70;;;;;;;;;;5030266;28;20181;-67
2022/12/03 01:20:18;;;;;;;12.07;8.30;;;;;;;;;;5027166;28;20204;-67
2022/12/03 01:22:43;;;;;;;10.10;8.47;;;;;;;;;;5034073;28;20547;-67
2022/12/03 01:25:09;;;;;;;11.13;8.50;;;;;;;;;;5032014;28;20670;-66
2022/12/03 01:27:34;;;;;;;14.50;9.90;;;;;;;;;;5012698;28;20195;-67
2022/12/03 01:29:59;;;;;;;10.37;9.27;;;;;;;;;;5031089;28;20200;-67
2022/12/03 01:32:25;;;;;;;11.63;9.10;;;;;;;;;;5032473;28;20191;-67
2022/12/03 01:34:51;;;;;;;11.80;9.70;;;;;;;;;;5030308;28;20192;-67
2022/12/03 01:37:17;;;;;;;12.30;9.80;;;;;;;;;;5038149;28;20254;-67
2022/12/03 01:39:43;;;;;;;12.53;9.43;;;;;;;;;;5038006;28;20438;-68
2022/12/03 01:42:12;;;;;;;13.30;9.90;;;;;;;;;;5037542;28;20423;-67
2022/12/03 01:44:38;;;;;;;12.20;9.70;;;;;;;;;;5017516;28;20187;-67
2022/12/03 01:47:05;;;;;;;12.40;9.40;;;;;;;;;;5035276;28;20470;-68
2022/12/03 01:49:39;;;;;;;14.80;10.00;;;;;;;;;;5034271;28;20464;-67
2022/12/03 01:52:05;;;;;;;12.37;9.93;;;;;;;;;;5037623;28;20517;-67
2022/12/03 01:54:39;;;;;;;14.27;9.77;;;;;;;;;;5039062;28;20556;-67
2022/12/03 01:57:05;;;;;;;13.73;9.43;;;;;;;;;;5035137;28;20266;-67
2022/12/03 01:59:36;;;;;;;11.73;8.90;;;;;;;;;;5037341;28;20440;-67
2022/12/03 02:02:21;;;;;;;12.53;9.40;;;;;;;;;;5035468;28;20445;-67
2022/12/03 02:04:47;;;;;;;12.40;9.77;;;;;;;;;;5030117;28;20453;-67
2022/12/03 02:07:31;;;;;;;13.80;9.90;;;;;;;;;;5011718;28;20426;-67
2022/12/03 02:09:57;;;;;;;13.33;10.37;;;;;;;;;;5025696;28;20210;-67
2022/12/03 02:12:29;;;;;;;12.10;9.90;;;;;;;;;;5031777;28;20806;-67
2022/12/03 02:14:54;;;;;;;12.03;9.40;;;;;;;;;;5032219;28;20452;-67
2022/12/03 02:17:20;;;;;;;12.40;9.67;;;;;;;;;;5030070;28;20948;-67
2022/12/03 02:19:45;;;;;;;14.33;10.53;;;;;;;;;;5032105;28;20207;-67
2022/12/03 02:22:11;;;;;;;12.47;10.23;;;;;;;;;;5034126;28;20207;-67
2022/12/03 02:24:40;;;;;;;14.20;10.40;;;;;;;;;;5031418;28;20180;-67
2022/12/03 02:27:06;;;;;;;14.27;10.57;;;;;;;;;;5020204;28;20192;-67
2022/12/03 02:29:31;;;;;;;12.67;10.40;;;;;;;;;;5032742;28;20459;-67
2022/12/03 02:31:56;;;;;;;14.17;11.13;;;;;;;;;;5014000;28;20684;-66
2022/12/03 02:34:32;;;;;;;13.70;10.03;;;;;;;;;;5025714;28;20183;-67
2022/12/03 02:36:57;;;;;;;11.87;9.63;;;;;;;;;;5031418;28;20294;-67
2022/12/03 02:39:23;;;;;;;13.33;10.67;;;;;;;;;;5032736;28;20544;-68
2022/12/03 02:44:34;;;;;;;12.73;10.80;;;;;;;;;;5037073;28;20246;-68
2022/12/03 02:47:00;;;;;;;13.60;10.90;;;;;;;;;;5017725;28;20442;-67
2022/12/03 02:49:25;;;;;;;13.10;10.00;;;;;;;;;;5014701;28;20261;-67
2022/12/03 02:51:51;;;;;;;12.20;9.73;;;;;;;;;;5033753;28;20180;-67
2022/12/03 02:54:16;;;;;;;15.30;11.60;;;;;;;;;;5020145;28;20667;-67
2022/12/03 02:56:41;;;;;;;14.50;11.37;;;;;;;;;;5034326;28;20207;-67
2022/12/03 02:59:06;;;;;;;13.77;10.87;;;;;;;;;;5034682;28;20295;-66
2022/12/03 03:01:33;;;;;;;13.63;10.23;;;;;;;;;;5036118;28;20202;-67
2022/12/03 03:03:59;;;;;;;16.23;11.03;;;;;;;;;;5016819;28;20180;-67
2022/12/03 03:06:25;;;;;;;14.07;10.77;;;;;;;;;;5012915;28;20648;-66
2022/12/03 03:08:50;;;;;;;13.63;10.73;;;;;;;;;;5013420;28;20447;-67
2022/12/03 03:11:16;;;;;;;16.33;11.20;;;;;;;;;;5028224;28;20191;-68
2022/12/03 03:13:41;;;;;;;14.13;10.50;;;;;;;;;;5031236;28;20207;-67
2022/12/03 03:16:06;;;;;;;15.00;11.13;;;;;;;;;;5014722;28;20243;-68
2022/12/03 03:18:32;;;;;;;15.30;11.90;;;;;;;;;;5037724;28;20561;-67
2022/12/03 03:20:58;;;;;;;13.87;10.80;;;;;;;;;;5034531;28;20204;-67
2022/12/03 03:23:24;;;;;;;14.67;11.07;;;;;;;;;;5018076;28;20411;-66
2022/12/03 03:26:05;;;;;;;15.20;11.63;;;;;;;;;;5017637;28;20779;-68
2022/12/03 03:28:33;;;;;;;17.30;11.90;;;;;;;;;;5019834;28;20180;-68
2022/12/03 03:31:01;;;;;;;16.43;11.20;;;;;;;;;;5029569;28;21048;-67
2022/12/03 03:33:26;;;;;;;15.80;11.50;;;;;;;;;;5011878;28;20942;-67
2022/12/03 03:35:52;;;;;;;15.50;11.00;;;;;;;;;;5032943;28;20480;-67
2022/12/03 03:38:18;;;;;;;14.50;11.10;;;;;;;;;;5034742;28;20184;-67
2022/12/03 03:40:43;;;;;;;15.47;11.80;;;;;;;;;;5038000;28;20279;-67
2022/12/03 03:43:09;;;;;;;16.00;11.13;;;;;;;;;;5035462;28;20818;-67
2022/12/03 03:45:34;;;;;;;14.80;11.13;;;;;;;;;;5035579;28;20187;-67
2022/12/03 03:48:00;;;;;;;14.67;11.23;;;;;;;;;;5031541;28;20438;-67
2022/12/03 03:50:29;;;;;;;15.50;11.73;;;;;;;;;;5028341;28;20258;-67
2022/12/03 03:52:55;;;;;;;14.40;10.77;;;;;;;;;;5034176;28;20257;-67
2022/12/03 03:55:21;;;;;;;16.07;12.23;;;;;;;;;;5035757;28;20528;-67
2022/12/03 03:57:47;;;;;;;18.37;11.57;;;;;;;;;;5031849;28;20187;-67
2022/12/03 04:00:12;;;;;;;15.83;11.73;;;;;;;;;;5034678;28;20206;-67
2022/12/03 04:02:39;;;;;;;16.13;11.43;;;;;;;;;;5033187;28;20808;-67
2022/12/03 04:05:05;;;;;;;15.57;11.83;;;;;;;;;;5033924;28;20187;-68
2022/12/03 04:07:30;;;;;;;15.17;11.13;;;;;;;;;;5033880;28;20438;-67
2022/12/03 04:09:55;;;;;;;13.93;10.20;;;;;;;;;;5040372;28;20577;-66
2022/12/03 04:15:05;;;;;;;15.60;12.30;;;;;;;;;;5039216;28;20654;-67
2022/12/03 04:17:30;;;;;;;14.63;11.17;;;;;;;;;;5020757;28;20423;-68
2022/12/03 04:19:55;;;;;;;14.77;11.37;;;;;;;;;;5022627;28;20203;-67
2022/12/03 04:22:38;;;;;;;14.70;11.00;;;;;;;;;;5036235;28;23083;-67
2022/12/03 04:30:32;;;;;;;15.10;11.53;;;;;;;;;;5035265;28;21038;-66
2022/12/03 04:35:41;;;;;;;16.27;11.10;;;;;;;;;;5035007;28;20211;-67
2022/12/03 04:38:06;;;;;;;15.87;11.40;;;;;;;;;;5036671;28;20427;-67
2022/12/03 04:43:18;;;;;;;16.00;11.57;;;;;;;;;;5033631;28;20199;-67
2022/12/03 04:45:43;;;;;;;14.90;10.83;;;;;;;;;;5032852;28;20925;-67
2022/12/03 04:48:08;;;;;;;15.87;12.47;;;;;;;;;;5018098;28;20438;-67
2022/12/03 04:50:33;;;;;;;16.73;11.97;;;;;;;;;;5030373;28;20204;-67
2022/12/03 04:53:01;;;;;;;13.93;10.50;;;;;;;;;;5032024;28;20705;-67
2022/12/03 04:55:26;;;;;;;15.50;11.03;;;;;;;;;;5034269;28;20226;-67
2022/12/03 04:57:52;;;;;;;14.63;11.00;;;;;;;;;;5034399;28;20910;-67
2022/12/03 05:00:17;;;;;;;16.37;11.07;;;;;;;;;;5014616;28;20196;-67
2022/12/03 05:02:42;;;;;;;14.80;10.70;;;;;;;;;;5032859;28;20175;-67
2022/12/03 05:05:08;;;;;;;14.00;10.50;;;;;;;;;;5029964;28;21068;-66
2022/12/03 05:07:33;;;;;;;13.90;10.60;;;;;;;;;;5028969;28;20219;-67
2022/12/03 05:09:59;;;;;;;14.80;10.43;;;;;;;;;;5034321;28;20258;-67
2022/12/03 05:12:24;;;;;;;13.47;10.67;;;;;;;;;;5030626;28;20176;-66
2022/12/03 05:14:49;;;;;;;14.80;10.83;;;;;;;;;;5030673;28;20598;-67
2022/12/03 05:17:14;;;;;;;15.83;11.27;;;;;;;;;;5015034;28;20215;-67
2022/12/03 05:22:23;;;;;;;13.17;9.93;;;;;;;;;;5035759;28;20963;-67
2022/12/03 05:24:49;;;;;;;13.87;10.30;;;;;;;;;;5031765;28;20453;-67
2022/12/03 05:27:14;;;;;;;15.33;11.37;;;;;;;;;;5035654;28;20191;-66
2022/12/03 05:29:39;;;;;;;18.43;10.67;;;;;;;;;;5031664;28;20814;-67
2022/12/03 05:32:05;;;;;;;14.13;10.10;;;;;;;;;;5027903;28;20185;-67
2022/12/03 05:34:30;;;;;;;13.60;10.40;;;;;;;;;;5020523;28;20184;-68
2022/12/03 05:36:55;;;;;;;14.33;9.30;;;;;;;;;;5035988;28;20212;-67
2022/12/03 05:39:20;;;;;;;14.00;10.33;;;;;;;;;;5037069;28;20224;-67
2022/12/03 05:44:29;;;;;;;15.00;9.97;;;;;;;;;;5036543;28;20231;-67
2022/12/03 05:46:55;;;;;;;15.87;10.37;;;;;;;;;;5038250;28;20850;-67
2022/12/03 05:49:20;;;;;;;14.60;10.27;;;;;;;;;;5034232;28;20202;-67
2022/12/03 05:51:45;;;;;;;16.70;10.10;;;;;;;;;;5033209;28;20560;-67
2022/12/03 05:54:11;;;;;;;13.80;10.10;;;;;;;;;;5038403;28;20193;-67
2022/12/03 05:56:36;;;;;;;12.50;9.43;;;;;;;;;;5022415;28;20845;-67
2022/12/03 05:59:01;;;;;;;15.20;9.97;;;;;;;;;;5034373;28;20553;-67
2022/12/03 06:01:26;;;;;;;15.37;9.90;;;;;;;;;;5019153;28;20179;-67
2022/12/03 06:03:52;;;;;;;12.50;9.37;;;;;;;;;;5033391;28;20308;-67
2022/12/03 06:06:17;;;;;;;14.40;10.57;;;;;;;;;;5016169;28;20286;-67
2022/12/03 06:08:42;;;;;;;16.20;10.10;;;;;;;;;;5031120;28;20177;-67
2022/12/03 06:11:07;;;;;;;15.83;10.33;;;;;;;;;;5014750;28;22830;-67
2022/12/03 06:13:35;;;;;;;13.07;9.90;;;;;;;;;;5016326;28;20183;-67
2022/12/03 06:16:00;;;;;;;14.77;10.30;;;;;;;;;;5022360;28;20698;-67
2022/12/03 06:18:26;;;;;;;15.60;9.60;;;;;;;;;;5014700;28;20439;-67
2022/12/03 06:20:51;;;;;;;12.40;8.83;;;;;;;;;;5014672;28;20212;-67
2022/12/03 06:23:16;;;;;;;14.27;9.93;;;;;;;;;;5035582;28;20642;-67
2022/12/03 06:25:41;;;;;;;14.93;10.23;;;;;;;;;;5019306;28;20184;-67
2022/12/03 06:28:07;;;;;;;16.87;10.13;;;;;;;;;;5040391;28;20184;-67
2022/12/03 06:30:34;;;;;;;13.60;9.90;;;;;;;;;;5021187;28;20202;-67
2022/12/03 06:32:59;;;;;;;13.87;9.80;;;;;;;;;;5017533;28;20219;-67
2022/12/03 06:35:24;;;;;;;15.73;10.07;;;;;;;;;;5033800;28;20474;-67
2022/12/03 06:37:49;;;;;;;13.70;9.83;;;;;;;;;;5034738;28;20644;-67
2022/12/03 06:40:15;;;;;;;13.63;10.07;;;;;;;;;;5033886;28;20537;-66
2022/12/03 06:42:41;;;;;;;14.03;9.97;;;;;;;;;;5031493;28;20196;-67
2022/12/03 06:45:07;;;;;;;13.53;10.70;;;;;;;;;;5032634;28;20228;-67
2022/12/03 06:47:32;;;;;;;16.13;10.57;;;;;;;;;;5034456;28;20184;-67
2022/12/03 06:50:00;;;;;;;17.37;11.30;;;;;;;;;;5033297;28;20460;-66
2022/12/03 06:52:26;;;;;;;16.90;11.30;;;;;;;;;;5037256;28;20263;-66
2022/12/03 06:54:53;;;;;;;13.60;10.13;;;;;;;;;;5031595;28;20565;-67
2022/12/03 06:57:18;;;;;;;14.03;10.27;;;;;;;;;;5033497;28;20199;-67
2022/12/03 06:59:44;;;;;;;16.13;11.27;;;;;;;;;;5031120;28;20511;-67
2022/12/03 07:02:10;;;;;;;14.80;9.50;;;;;;;;;;5033583;28;20175;-67
2022/12/03 07:04:38;;;;;;;14.33;9.83;;;;;;;;;;5032413;28;20212;-67
2022/12/03 07:07:03;;;;;;;15.60;10.90;;;;;;;;;;5034442;28;20431;-67
2022/12/03 07:09:28;;;;;;;15.90;11.03;;;;;;;;;;5011750;28;20464;-68
2022/12/03 07:11:54;;;;;;;16.47;10.23;;;;;;;;;;5034834;28;20196;-68
2022/12/03 07:14:19;;;;;;;15.87;11.13;;;;;;;;;;5034462;28;20184;-68
2022/12/03 07:16:44;;;;;;;17.93;12.70;;;;;;;;;;5034602;28;20319;-68
2022/12/03 07:19:10;;;;;;;15.50;10.43;;;;;;;;;;5034843;28;20286;-68
2022/12/03 07:21:35;;;;;;;14.23;10.80;;;;;;;;;;5031844;28;20267;-67
2022/12/03 07:24:01;;;;;;;17.30;11.37;;;;;;;;;;5030943;28;20210;-67
2022/12/03 07:26:26;;;;;;;16.77;11.27;;;;;;;;;;5035727;28;20179;-68
2022/12/03 07:28:52;;;;;;;16.73;11.60;;;;;;;;;;5033116;28;20188;-68
2022/12/03 07:31:17;;;;;;;23.43;13.13;;;;;;;;;;5017365;28;20185;-68
2022/12/03 07:33:45;;;;;;;18.80;10.87;;;;;;;;;;5034702;28;20280;-67
2022/12/03 07:36:10;;;;;;;17.50;12.30;;;;;;;;;;5035582;28;20235;-68
2022/12/03 07:38:35;;;;;;;18.40;12.23;;;;;;;;;;5019757;28;20443;-67
2022/12/03 07:41:01;;;;;;;16.00;11.17;;;;;;;;;;5038262;28;20249;-68
2022/12/03 07:43:26;;;;;;;18.50;12.10;;;;;;;;;;5034404;28;20186;-67
2022/12/03 07:45:51;;;;;;;17.20;12.80;;;;;;;;;;5038614;28;20176;-68
2022/12/03 07:48:16;;;;;;;19.40;12.80;;;;;;;;;;5038493;28;20823;-68
2022/12/03 07:50:42;;;;;;;19.00;13.30;;;;;;;;;;5037618;28;20204;-68
2022/12/03 07:53:07;;;;;;;17.77;11.80;;;;;;;;;;5034371;28;20191;-67
2022/12/03 07:55:32;;;;;;;18.30;12.57;;;;;;;;;;5031534;28;20219;-67
2022/12/03 07:58:00;;;;;;;18.80;12.40;;;;;;;;;;5036579;28;20263;-68
2022/12/03 08:00:25;;;;;;;19.60;13.60;;;;;;;;;;5034606;28;20232;-68
2022/12/03 08:02:51;;;;;;;23.00;14.90;;;;;;;;;;5037210;28;20457;-67
2022/12/03 08:05:16;;;;;;;18.23;13.00;;;;;;;;;;5035487;28;20246;-68
2022/12/03 08:07:41;;;;;;;17.33;11.80;;;;;;;;;;5017539;28;20180;-67
2022/12/03 08:10:06;;;;;;;19.80;14.00;;;;;;;;;;5035399;28;20200;-68
2022/12/03 08:12:40;;;;;;;22.00;14.43;;;;;;;;;;5028036;28;20180;-67
2022/12/03 08:15:19;;;;;;;18.00;13.37;;;;;;;;;;5031115;28;20187;-68
2022/12/03 08:17:46;;;;;;;17.93;12.43;;;;;;;;;;5032957;28;20534;-69
2022/12/03 08:20:13;;;;;;;22.87;13.80;;;;;;;;;;5026881;28;20467;-69
2022/12/03 08:22:39;;;;;;;20.73;13.90;;;;;;;;;;5024202;28;20441;-68
2022/12/03 08:25:11;;;;;;;19.20;14.00;;;;;;;;;;5012070;28;20522;-68
2022/12/03 08:27:36;;;;;;;21.00;13.63;;;;;;;;;;5028347;28;20447;-69
2022/12/03 08:30:03;;;;;;;20.53;12.67;;;;;;;;;;5010843;28;21059;-69
2022/12/03 08:32:29;;;;;;;19.00;14.00;;;;;;;;;;5021930;28;20180;-68
2022/12/03 08:34:55;;;;;;;19.70;13.50;;;;;;;;;;5023253;28;20955;-69
2022/12/03 08:37:20;;;;;;;19.53;12.63;;;;;;;;;;5022629;28;20475;-66
2022/12/03 08:39:47;;;;;;;21.17;13.50;;;;;;;;;;5030950;28;20243;-68
2022/12/03 08:45:19;;;;;;;17.60;12.07;;;;;;;;;;5028546;28;20426;-69
2022/12/03 08:47:47;;;;;;;20.00;12.07;;;;;;;;;;5029595;28;20459;-68
2022/12/03 08:50:26;;;;;;;19.97;13.20;;;;;;;;;;5033617;28;21025;-69
2022/12/03 08:52:51;;;;;;;19.33;13.07;;;;;;;;;;5031679;28;20434;-68
2022/12/03 08:55:43;;;;;;;22.47;13.90;;;;;;;;;;5030981;28;20446;-69
2022/12/03 08:58:27;;;;;;;19.70;13.00;;;;;;;;;;5030376;28;20630;-68
2022/12/03 09:00:57;;;;;;;19.33;13.47;;;;;;;;;;5017167;28;20455;-68
2022/12/03 09:03:23;;;;;;;20.33;13.87;;;;;;;;;;5029351;28;20526;-67
2022/12/03 09:05:49;;;;;;;17.60;12.60;;;;;;;;;;5028751;28;20513;-68
2022/12/03 09:08:14;;;;;;;19.80;12.50;;;;;;;;;;5026943;28;20525;-68
2022/12/03 09:10:39;;;;;;;20.43;13.77;;;;;;;;;;5009821;28;20204;-69
2022/12/03 09:13:04;;;;;;;21.63;14.00;;;;;;;;;;5030957;28;20196;-68
2022/12/03 09:15:30;;;;;;;22.07;13.80;;;;;;;;;;5011240;28;20203;-68
2022/12/03 09:17:55;;;;;;;20.30;12.40;;;;;;;;;;5029904;28;20184;-68
2022/12/03 09:20:20;;;;;;;20.70;13.50;;;;;;;;;;5032742;28;20200;-68
2022/12/03 09:22:45;;;;;;;22.03;13.93;;;;;;;;;;5033639;28;20686;-67
2022/12/03 09:25:11;;;;;;;21.10;13.80;;;;;;;;;;5031057;28;20172;-68
2022/12/03 09:27:36;;;;;;;17.47;12.70;;;;;;;;;;5024180;28;20810;-68
2022/12/03 09:30:02;;;;;;;17.77;12.40;;;;;;;;;;5018590;28;20283;-69
2022/12/03 09:32:28;;;;;;;25.40;13.80;;;;;;;;;;5027823;28;20184;-69
2022/12/03 09:34:53;;;;;;;19.23;13.17;;;;;;;;;;5024555;28;20442;-69
2022/12/03 09:37:20;;;;;;;21.40;13.67;;;;;;;;;;5012330;28;20230;-68
2022/12/03 09:39:46;;;;;;;18.40;12.97;;;;;;;;;;5006758;28;20273;-68
2022/12/03 09:42:11;;;;;;;19.93;13.07;;;;;;;;;;5042450;23;20494;-68
2022/12/03 09:44:37;;;;;;;16.27;11.90;;;;;;;;;;5026316;28;20942;-67
2022/12/03 09:47:03;;;;;;;19.07;12.10;;;;;;;;;;5032929;28;20184;-67
2022/12/03 09:49:30;;;;;;;18.87;12.50;;;;;;;;;;5030458;28;20180;-67
2022/12/03 09:51:56;;;;;;;18.47;13.23;;;;;;;;;;5024576;28;20512;-68
2022/12/03 09:54:23;;;;;;;17.70;12.23;;;;;;;;;;5029669;28;20469;-68
2022/12/03 09:56:48;;;;;;;21.40;12.70;;;;;;;;;;5026512;28;20467;-68
2022/12/03 09:59:14;;;;;;;17.37;12.43;;;;;;;;;;5028347;28;20805;-68
2022/12/03 10:01:40;;;;;;;18.23;13.07;;;;;;;;;;5027730;28;20207;-69
2022/12/03 10:04:11;;;;;;;19.83;14.00;;;;;;;;;;5027301;28;20438;-69
2022/12/03 10:06:37;;;;;;;19.10;12.20;;;;;;;;;;5013175;28;20192;-69
2022/12/03 10:09:03;;;;;;;20.90;14.53;;;;;;;;;;5021062;28;20428;-69
2022/12/03 10:11:29;;;;;;;22.27;13.70;;;;;;;;;;5028429;28;20741;-68
2022/12/03 10:13:55;;;;;;;19.53;13.07;;;;;;;;;;5025333;28;20184;-68
2022/12/03 10:16:20;;;;;;;17.97;12.80;;;;;;;;;;5007169;28;20872;-69
2022/12/03 10:18:50;;;;;;;19.00;12.90;;;;;;;;;;5021495;28;20454;-68
2022/12/03 10:21:16;;;;;;;17.50;11.97;;;;;;;;;;5016806;28;20203;-68
2022/12/03 10:23:42;;;;;;;21.27;14.53;;;;;;;;;;5027440;28;20440;-68
2022/12/03 10:26:07;;;;;;;19.00;12.90;;;;;;;;;;5033084;28;20279;-68
2022/12/03 10:28:34;;;;;;;20.07;13.50;;;;;;;;;;5031781;28;20577;-67
2022/12/03 10:31:01;;;;;;;21.43;13.77;;;;;;;;;;5032383;28;20211;-67
2022/12/03 10:33:34;;;;;;;18.33;12.73;;;;;;;;;;5035941;28;20812;-68
2022/12/03 10:36:17;;;;;;;22.43;15.67;;;;;;;;;;5024496;28;20466;-68
2022/12/03 10:38:43;;;;;;;18.40;14.70;;;;;;;;;;5031293;28;20461;-67
2022/12/03 10:41:27;;;;;;;18.87;13.40;;;;;;;;;;5030740;28;20501;-68
2022/12/03 10:43:52;;;;;;;19.73;13.60;;;;;;;;;;5031786;28;20219;-67
2022/12/03 10:46:21;;;;;;;21.27;14.73;;;;;;;;;;5035276;28;20446;-67
2022/12/03 10:49:05;;;;;;;22.03;16.07;;;;;;;;;;5030229;28;20223;-68
2022/12/03 10:51:30;;;;;;;20.00;14.37;;;;;;;;;;5031793;28;20449;-67
2022/12/03 10:53:56;;;;;;;20.77;13.90;;;;;;;;;;5027640;28;20833;-67
2022/12/03 10:56:25;;;;;;;19.87;14.30;;;;;;;;;;5022550;28;20208;-68
2022/12/03 10:58:50;;;;;;;22.70;14.23;;;;;;;;;;5029897;28;20181;-67
2022/12/03 11:01:20;;;;;;;20.87;15.00;;;;;;;;;;5031027;28;20453;-68
2022/12/03 11:03:46;;;;;;;21.47;16.27;;;;;;;;;;5038863;28;20509;-69
2022/12/03 11:06:15;;;;;;;22.63;15.03;;;;;;;;;;5036493;28;20521;-67
2022/12/03 11:08:42;;;;;;;20.30;14.03;;;;;;;;;;5035646;28;20266;-66
2022/12/03 11:11:17;;;;;;;21.03;14.80;;;;;;;;;;5037818;28;20442;-73
2022/12/03 11:13:46;;;;;;;20.80;14.63;;;;;;;;;;5036266;28;20426;-69
2022/12/03 11:16:13;;;;;;;23.13;15.30;;;;;;;;;;5011084;28;20470;-69
2022/12/03 11:18:38;;;;;;;21.47;15.67;;;;;;;;;;5007897;28;20445;-69
2022/12/03 11:21:13;;;;;;;21.17;15.50;;;;;;;;;;5034420;28;20817;-68
2022/12/03 11:23:58;;;;;;;21.53;14.90;;;;;;;;;;5033701;28;20615;-70
2022/12/03 11:26:29;;;;;;;19.60;14.17;;;;;;;;;;5020489;28;20441;-69
2022/12/03 11:28:55;;;;;;;20.70;15.20;;;;;;;;;;5035902;28;20426;-69
2022/12/03 11:31:39;;;;;;;21.43;15.33;;;;;;;;;;5029180;28;20445;-70
2022/12/03 11:34:17;;;;;;;22.03;14.90;;;;;;;;;;5034910;28;20311;-70
2022/12/03 11:37:01;;;;;;;22.97;15.53;;;;;;;;;;5026955;28;20503;-69
2022/12/03 11:39:46;;;;;;;21.80;14.60;;;;;;;;;;5029350;28;20421;-69
2022/12/03 11:42:29;;;;;;;19.13;14.03;;;;;;;;;;5034098;28;20506;-70
2022/12/03 11:45:09;;;;;;;21.40;14.93;;;;;;;;;;5030943;28;20446;-69
2022/12/03 11:47:42;;;;;;;28.77;15.20;;;;;;;;;;5029405;28;20442;-70
2022/12/03 11:50:20;;;;;;;19.77;14.63;;;;;;;;;;5029725;28;20434;-70
2022/12/03 11:52:46;;;;;;;23.77;15.93;;;;;;;;;;5014031;28;20469;-72
2022/12/03 11:55:31;;;;;;;24.03;16.50;;;;;;;;;;5030855;28;20434;-70
2022/12/03 11:58:01;;;;;;;22.63;16.33;;;;;;;;;;5030698;28;20573;-72
2022/12/03 12:00:27;;;;;;;22.13;16.20;;;;;;;;;;5027157;28;20453;-71
2022/12/03 12:02:53;;;;;;;24.13;15.33;;;;;;;;;;5024935;28;20951;-71
2022/12/03 12:05:21;;;;;;;20.53;14.60;;;;;;;;;;5032615;28;20184;-71
2022/12/03 12:07:47;;;;;;;25.53;16.37;;;;;;;;;;5027002;28;20451;-69
2022/12/03 12:10:14;;;;;;;22.47;15.60;;;;;;;;;;5030127;28;20504;-69
2022/12/03 12:12:41;;;;;;;19.23;13.87;;;;;;;;;;5032229;28;20626;-69
2022/12/03 12:15:25;;;;;;;23.00;15.80;;;;;;;;;;5018740;28;20446;-70
2022/12/03 12:17:50;;;;;;;24.03;16.27;;;;;;;;;;5033529;28;20541;-68
2022/12/03 12:20:25;;;;;;;23.63;16.33;;;;;;;;;;5034620;28;20996;-69
2022/12/03 12:22:54;;;;;;;22.10;15.23;;;;;;;;;;5030242;28;20207;-69
2022/12/03 12:25:29;;;;;;;23.80;16.37;;;;;;;;;;5008010;28;20458;-70
2022/12/03 12:27:54;;;;;;;24.03;15.37;;;;;;;;;;5017758;28;20951;-69
2022/12/03 12:30:20;;;;;;;22.80;16.33;;;;;;;;;;5012614;28;20518;-70
2022/12/03 12:33:06;;;;;;;21.43;15.30;;;;;;;;;;5026478;28;20250;-71
2022/12/03 12:35:31;;;;;;;19.63;14.97;;;;;;;;;;5031651;28;20451;-71
2022/12/03 12:38:06;;;;;;;22.73;15.57;;;;;;;;;;5027856;28;20439;-72
2022/12/03 12:40:32;;;;;;;23.17;16.53;;;;;;;;;;5030657;28;20257;-70
2022/12/03 12:43:10;;;;;;;27.53;17.53;;;;;;;;;;5031443;28;20449;-68
2022/12/03 12:45:37;;;;;;;23.53;15.63;;;;;;;;;;5034658;28;20517;-68
2022/12/03 12:48:02;;;;;;;23.37;15.70;;;;;;;;;;5033988;28;20430;-69
2022/12/03 12:50:29;;;;;;;25.20;16.77;;;;;;;;;;5031165;28;20501;-69
2022/12/03 12:52:59;;;;;;;23.53;16.23;;;;;;;;;;5030086;28;20849;-69
2022/12/03 12:55:24;;;;;;;25.13;16.67;;;;;;;;;;5031231;28;20426;-69
2022/12/03 12:57:50;;;;;;;22.70;16.30;;;;;;;;;;5023114;28;20435;-68
2022/12/03 13:00:16;;;;;;;22.20;15.00;;;;;;;;;;5031665;28;20184;-69
2022/12/03 13:02:43;;;;;;;25.30;17.00;;;;;;;;;;5030234;28;20212;-69
2022/12/03 13:05:10;;;;;;;21.10;15.50;;;;;;;;;;5030252;28;20924;-71
2022/12/03 13:07:35;;;;;;;21.37;15.83;;;;;;;;;;5030477;28;20447;-69
2022/12/03 13:10:15;;;;;;;22.53;16.43;;;;;;;;;;5033781;28;20812;-71
2022/12/03 13:12:40;;;;;;;22.90;15.57;;;;;;;;;;5029701;28;20361;-69
2022/12/03 13:15:26;;;;;;;21.13;15.63;;;;;;;;;;5031008;28;21130;-68
2022/12/03 13:17:51;;;;;;;24.50;16.87;;;;;;;;;;5032604;28;20187;-71
2022/12/03 13:20:19;;;;;;;24.70;16.23;;;;;;;;;;5032846;28;20437;-69
2022/12/03 13:22:44;;;;;;;24.27;15.87;;;;;;;;;;5016696;28;20237;-71
2022/12/03 13:25:39;;;;;;;25.47;16.57;;;;;;;;;;5030913;28;20438;-68
2022/12/03 13:28:06;;;;;;;23.70;16.23;;;;;;;;;;5003690;28;20792;-71
2022/12/03 13:30:31;;;;;;;24.30;16.30;;;;;;;;;;5024133;28;20442;-68
2022/12/03 13:32:57;;;;;;;23.80;15.77;;;;;;;;;;5029175;28;20453;-68
2022/12/03 13:35:34;;;;;;;22.50;16.07;;;;;;;;;;5031510;28;20657;-69
2022/12/03 13:38:00;;;;;;;24.30;16.80;;;;;;;;;;5031393;28;20175;-70
2022/12/03 13:40:29;;;;;;;23.90;17.13;;;;;;;;;;5026090;28;20457;-70
2022/12/03 13:42:54;;;;;;;23.40;15.47;;;;;;;;;;5032939;28;20877;-69
2022/12/03 13:45:21;;;;;;;22.20;16.10;;;;;;;;;;5031358;28;20450;-71
2022/12/03 13:47:47;;;;;;;22.13;15.63;;;;;;;;;;5015408;28;20188;-70
2022/12/03 13:50:20;;;;;;;22.80;14.20;;;;;;;;;;5027008;28;20446;-70
2022/12/03 13:52:46;;;;;;;21.07;15.57;;;;;;;;;;5025086;28;20462;-70
2022/12/03 13:55:13;;;;;;;24.03;15.03;;;;;;;;;;5029450;28;20455;-68
2022/12/03 13:57:39;;;;;;;22.40;15.67;;;;;;;;;;5029790;28;20215;-69
2022/12/03 14:00:04;;;;;;;22.23;16.10;;;;;;;;;;5025428;28;20864;-71
2022/12/03 14:02:30;;;;;;;22.70;15.43;;;;;;;;;;5025229;28;20208;-70
2022/12/03 14:04:55;;;;;;;20.67;15.00;;;;;;;;;;5013988;28;21153;-70
2022/12/03 14:07:20;;;;;;;25.57;17.50;;;;;;;;;;5009174;28;20191;-70
2022/12/03 14:09:45;;;;;;;22.50;16.13;;;;;;;;;;5029769;28;20212;-70
2022/12/03 14:12:26;;;;;;;24.80;16.37;;;;;;;;;;5012981;28;20211;-69
2022/12/03 14:14:52;;;;;;;28.83;18.87;;;;;;;;;;5019974;28;20183;-70
2022/12/03 14:17:17;;;;;;;24.23;17.27;;;;;;;;;;5018306;28;20466;-70
2022/12/03 14:19:42;;;;;;;27.03;16.73;;;;;;;;;;5032971;28;20188;-70
2022/12/03 14:22:08;;;;;;;22.63;17.03;;;;;;;;;;5020136;28;20223;-70
2022/12/03 14:24:33;;;;;;;23.10;16.53;;;;;;;;;;5036754;28;20203;-70
2022/12/03 14:26:59;;;;;;;26.20;16.40;;;;;;;;;;5034426;28;20207;-70
2022/12/03 14:29:24;;;;;;;23.13;16.60;;;;;;;;;;5020519;28;20224;-70
2022/12/03 14:31:49;;;;;;;22.77;15.80;;;;;;;;;;5037296;28;20226;-70
2022/12/03 14:34:15;;;;;;;23.27;16.30;;;;;;;;;;5036612;28;20215;-70
2022/12/03 14:36:40;;;;;;;23.97;14.97;;;;;;;;;;5038256;28;20215;-69
2022/12/03 14:39:06;;;;;;;22.33;15.73;;;;;;;;;;5039402;28;20940;-70
2022/12/03 14:44:15;;;;;;;27.50;17.57;;;;;;;;;;5038828;28;20198;-70
2022/12/03 14:46:41;;;;;;;22.00;15.40;;;;;;;;;;5043851;28;20422;-70
2022/12/03 14:49:06;;;;;;;23.80;15.30;;;;;;;;;;5042120;28;20210;-70